Indianapolis International Airport (IND/KIND)




Flight Aircraft Arriving
CPX2530 B744
B763
KMEM - Memphis International Airport
United StatesTennessee Memphis, Tennessee
Flight Aircraft Departing
CPX2557 B744
B763
KMEM - Memphis International Airport
United StatesTennessee Memphis, Tennessee
Airport Information
Location: Indianapolis, US
Coordinates: 39.7173 / -86.2946
Elevation:
Time Offset:
Local Time:
UTC Time:
Jet A Price: $0.89/lbs

Current Weather
METAR: KIND 050654Z 35007KT 10SM OVC021 06/04 A3008 RMK AO2 SLP187 T00610039
TAF: KIND 050520Z 0506/0612 36006KT P6SM OVC012 FM051200 02006KT P6SM BKN008 FM051500 03005KT P6SM OVC010 FM051800 03004KT P6SM BKN030 FM060000 03005KT P6SM SCT070

Recent Arrivals
Date Flight Type Depart
11/21/2019 CPX2557 B744 Memphis International Airport (KMEM)
11/20/2019 CPX2557 B763 Memphis International Airport (KMEM)
11/18/2019 CPX2557 B744 Memphis International Airport (KMEM)
Recent Departures
Date Flight Type Arrive
11/22/2019 CPX2530 B744 Memphis International Airport (KMEM)
11/20/2019 CPX2530 B763 Memphis International Airport (KMEM)
11/18/2019 CPX2530 B744 Memphis International Airport (KMEM)